Weather at Purio Airport

Public forecast

Using degrees Celsius for public forecast. Weather courtesy of forecast.io.

Closest aviation weather report (METAR) to Purio Airport

Closest report is Abel Santamaria Airport, 11.9 nm (22.0 km) SSW. Retrieved 2021/06/23 01:50 UTC (1 hour ago):

MUSC 230150Z 16002KT 9000 SCT020 BKN060 24/22 Q1019

Closest aviation forecast (TAF) to Purio Airport

Forecast is more than 12 hours old.

Closest forecast is Abel Santamaria Airport, 11.9 nm (22.0 km) SSW. Retrieved 2021/01/30 18:00 UTC (5 months ago):

TAF MUSC 301700Z 3018/3118 10015KT 9000 SCT030 BECMG 3101/3103 VRB03KT BECMG 3115/3117 13010KT